Clark Colony, South Dakota
Current Conditions -  °F | °C
As of 7:26 AM on Sunday 21 Dec 2014 (Local Time) from KATY Reporting Station
Haze Haze  
Wind Chill: 20°   Ceiling: 200
Heat Index: 29°   Visibility: 1.5mi
Dew Point: 29°   Wind: 9mph
Humidity: 100%   Direction: 170°S
Pressure: 29.74"   Gusts: NA
Location:  44.8923°N, 97.9193°W
Report Text: KATY 211326Z AUTO 17008KT 1 1/2SM BR OVC002 M02/M02 A2974 RMK AO2 T10171017
Loading
Personal Weather Stations






























Interactive Weather Map New forecast layout! Learn more

10-Day Weather Forecast

Advertisements
Track Severe Weather on mobile